createdAt,value
2022-08-22T00:00:58.868Z,77.87
2022-08-22T00:03:02.938Z,69.52
2022-08-22T00:06:15.256Z,78.01
2022-08-22T00:11:29.442Z,78.07
2022-08-22T00:16:38.398Z,77.95
2022-08-22T00:21:48.737Z,78.02
2022-08-22T00:26:57.140Z,78.09
2022-08-22T00:32:10.315Z,78.41
2022-08-22T00:37:24.522Z,78.52
2022-08-22T00:42:53.950Z,78.57
2022-08-22T00:48:07.582Z,78.80
2022-08-22T00:53:32.693Z,79.25
2022-08-22T00:59:22.828Z,79.34
2022-08-22T01:04:50.933Z,79.24
2022-08-22T01:10:05.126Z,79.47
2022-08-22T01:15:11.094Z,79.41
2022-08-22T01:20:53.589Z,79.46
2022-08-22T01:26:31.487Z,79.52
2022-08-22T01:32:19.392Z,79.44
2022-08-22T01:37:59.886Z,79.61
2022-08-22T01:43:18.017Z,79.60
2022-08-22T01:48:26.016Z,80.27
2022-08-22T01:53:43.688Z,80.40
2022-08-22T01:58:58.807Z,80.61
2022-08-22T02:04:10.872Z,80.92
2022-08-22T02:09:28.916Z,81.13
2022-08-22T02:14:44.639Z,81.12
2022-08-22T02:19:55.359Z,80.93
2022-08-22T02:25:09.012Z,80.65
2022-08-22T02:30:17.137Z,81.05
2022-08-22T02:35:26.514Z,81.06
2022-08-22T02:40:35.409Z,81.22
2022-08-22T02:45:47.919Z,81.39
2022-08-22T02:50:57.396Z,81.59
2022-08-22T02:56:04.961Z,81.46
2022-08-22T03:01:24.335Z,81.47
2022-08-22T03:06:39.897Z,81.45
2022-08-22T03:11:48.366Z,81.63
2022-08-22T03:17:02.765Z,81.78
2022-08-22T03:22:11.275Z,81.74
2022-08-22T03:27:32.735Z,81.76
2022-08-22T03:32:53.701Z,81.77
2022-08-22T03:38:14.606Z,81.62
2022-08-22T03:43:39.931Z,81.79
2022-08-22T03:49:13.883Z,82.06
2022-08-22T03:54:48.951Z,81.79
2022-08-22T04:00:22.466Z,81.89
2022-08-22T04:06:11.527Z,81.79
2022-08-22T04:11:51.821Z,81.58
2022-08-22T04:17:33.581Z,81.93
2022-08-22T04:23:12.949Z,82.66
2022-08-22T04:28:20.746Z,83.01
2022-08-22T04:33:30.410Z,83.02
2022-08-22T04:38:40.072Z,83.34
2022-08-22T04:43:49.042Z,83.64
2022-08-22T04:48:56.371Z,83.52
2022-08-22T04:54:39.722Z,83.66
2022-08-22T04:59:43.693Z,83.40
2022-08-22T05:04:51.498Z,83.50
2022-08-22T05:10:11.621Z,83.47
2022-08-22T05:15:23.170Z,83.86
2022-08-22T05:20:28.688Z,83.93
2022-08-22T05:25:37.163Z,84.05
2022-08-22T05:30:41.004Z,84.03
2022-08-22T05:35:50.782Z,84.06
2022-08-22T05:41:03.101Z,84.30
2022-08-22T05:46:09.825Z,84.71
2022-08-22T05:51:18.779Z,85.36
2022-08-22T05:56:33.698Z,85.81
2022-08-22T06:01:44.580Z,86.35
2022-08-22T06:06:55.027Z,86.33
2022-08-22T06:12:01.696Z,86.77
2022-08-22T06:17:11.250Z,87.06
2022-08-22T06:22:18.744Z,87.22
2022-08-22T06:27:25.597Z,87.33
2022-08-22T06:32:59.002Z,87.09
2022-08-22T06:38:00.571Z,86.98
2022-08-22T06:43:13.245Z,86.48
2022-08-22T06:48:19.416Z,86.39
2022-08-22T06:53:25.886Z,85.39
2022-08-22T06:58:34.471Z,84.97
2022-08-22T07:03:41.994Z,83.97
2022-08-22T07:08:45.452Z,83.51
2022-08-22T07:14:01.782Z,82.83
2022-08-22T07:19:04.618Z,82.84
2022-08-22T07:24:08.765Z,82.92
2022-08-22T07:29:23.180Z,82.22
2022-08-22T07:34:44.665Z,81.77
2022-08-22T07:39:54.010Z,80.89
2022-08-22T07:45:10.169Z,80.40
2022-08-22T07:50:21.867Z,79.28
2022-08-22T07:55:27.064Z,78.83
2022-08-22T08:00:32.471Z,78.24
2022-08-22T08:05:39.453Z,77.50
2022-08-22T08:10:42.405Z,77.24
2022-08-22T08:15:47.025Z,75.15
2022-08-22T08:20:52.805Z,74.33
2022-08-22T08:26:04.323Z,73.33
2022-08-22T08:31:20.471Z,71.95
2022-08-22T08:36:31.308Z,72.20
2022-08-22T08:42:31.537Z,71.35
2022-08-22T08:47:49.580Z,71.53
2022-08-22T08:53:27.023Z,69.95
2022-08-22T08:58:43.335Z,70.46
2022-08-22T09:04:21.384Z,70.25
2022-08-22T09:09:38.577Z,69.44
2022-08-22T09:15:19.743Z,68.45
2022-08-22T09:20:48.657Z,68.03
2022-08-22T09:25:56.648Z,67.17
2022-08-22T09:31:32.841Z,67.32
2022-08-22T09:37:06.485Z,67.25
2022-08-22T09:42:21.091Z,67.98
2022-08-22T09:47:32.730Z,68.19
2022-08-22T09:52:54.708Z,66.52
2022-08-22T09:58:05.879Z,64.98
2022-08-22T10:03:20.481Z,64.09
2022-08-22T10:08:50.755Z,63.48
2022-08-22T10:14:01.529Z,62.10
2022-08-22T10:19:18.734Z,62.41
2022-08-22T10:24:43.858Z,61.05
2022-08-22T10:30:04.977Z,61.56
2022-08-22T10:35:19.504Z,58.80
2022-08-22T10:40:29.937Z,59.46
2022-08-22T10:45:36.584Z,59.59
2022-08-22T10:50:44.472Z,56.58
2022-08-22T10:55:54.049Z,56.13
2022-08-22T11:01:02.540Z,56.81
2022-08-22T11:06:30.605Z,56.36
2022-08-22T11:11:43.543Z,54.60
2022-08-22T11:16:58.022Z,53.30
2022-08-22T11:22:06.892Z,53.34
2022-08-22T11:27:21.949Z,53.04
2022-08-22T11:32:49.676Z,53.47
2022-08-22T11:38:01.120Z,54.97
2022-08-22T11:43:32.568Z,54.40
2022-08-22T11:48:48.655Z,53.45
2022-08-22T11:54:01.985Z,52.78
2022-08-22T11:59:16.218Z,52.15
2022-08-22T12:04:28.409Z,52.35
2022-08-22T12:09:55.696Z,52.84
2022-08-22T12:15:09.147Z,53.13
2022-08-22T12:20:28.305Z,53.12
2022-08-22T12:26:01.057Z,53.06
2022-08-22T12:31:13.731Z,54.29
2022-08-22T12:36:45.912Z,54.66
2022-08-22T12:42:21.616Z,55.19
2022-08-22T12:47:42.107Z,55.25
2022-08-22T12:52:58.676Z,55.77
2022-08-22T12:58:12.637Z,55.57
2022-08-22T13:03:25.815Z,56.40
2022-08-22T13:08:32.481Z,56.99
2022-08-22T13:13:40.458Z,57.16
2022-08-22T13:18:56.677Z,57.59
2022-08-22T13:24:05.771Z,58.47
2022-08-22T13:29:27.407Z,58.57
2022-08-22T13:34:49.225Z,58.70
2022-08-22T13:39:56.104Z,58.54
2022-08-22T13:45:04.465Z,59.32
2022-08-22T13:50:15.000Z,59.37
2022-08-22T13:55:21.087Z,59.24
2022-08-22T14:00:59.769Z,59.13
2022-08-22T14:06:37.530Z,59.64
2022-08-22T14:11:45.615Z,59.59
2022-08-22T14:16:51.750Z,60.51
2022-08-22T14:22:00.187Z,61.50
2022-08-22T14:27:07.150Z,61.04
2022-08-22T14:32:35.044Z,61.57
2022-08-22T14:37:44.400Z,61.72
2022-08-22T14:42:55.582Z,62.65
2022-08-22T14:48:30.556Z,63.50
2022-08-22T14:53:30.181Z,64.04
2022-08-22T14:58:37.234Z,63.64
2022-08-22T15:03:42.578Z,63.79
2022-08-22T15:08:51.635Z,64.93
2022-08-22T15:14:04.058Z,64.31
2022-08-22T15:19:26.432Z,64.41
2022-08-22T15:24:32.067Z,64.90
2022-08-22T15:29:51.683Z,65.47
2022-08-22T15:35:03.375Z,65.56
2022-08-22T15:40:13.186Z,65.38
2022-08-22T15:45:21.368Z,65.11
2022-08-22T15:50:35.986Z,65.30
2022-08-22T15:56:19.727Z,64.90
2022-08-22T16:01:25.486Z,65.32
2022-08-22T16:06:45.076Z,65.52
2022-08-22T16:11:55.908Z,66.33
2022-08-22T16:17:03.950Z,66.41
2022-08-22T16:22:16.957Z,66.36
2022-08-22T16:27:25.676Z,66.26
2022-08-22T16:32:29.340Z,66.40
2022-08-22T16:37:45.953Z,66.50
2022-08-22T16:43:10.578Z,67.21
2022-08-22T16:48:39.551Z,66.95
2022-08-22T16:54:08.719Z,67.29
2022-08-22T16:59:29.594Z,67.82
2022-08-22T17:04:52.052Z,68.17
2022-08-22T17:10:12.370Z,68.70
2022-08-22T17:15:28.035Z,69.31
2022-08-22T17:20:44.292Z,69.48
2022-08-22T17:25:59.662Z,69.71
2022-08-22T17:31:11.809Z,69.91
2022-08-22T17:36:26.994Z,69.77
2022-08-22T17:41:39.539Z,70.25
2022-08-22T17:46:49.586Z,70.45
2022-08-22T17:51:58.626Z,70.61
2022-08-22T17:57:08.193Z,70.67
2022-08-22T18:02:25.448Z,71.07
2022-08-22T18:07:38.317Z,71.24
2022-08-22T18:12:47.027Z,71.15
2022-08-22T18:17:56.724Z,71.50
2022-08-22T18:23:04.429Z,71.85
2022-08-22T18:28:13.878Z,72.10
2022-08-22T18:33:24.316Z,72.61
2022-08-22T18:38:33.224Z,73.08
2022-08-22T18:43:39.299Z,73.57
2022-08-22T18:49:05.414Z,73.59
2022-08-22T18:54:37.100Z,73.94
2022-08-22T18:59:54.782Z,74.24
2022-08-22T19:05:42.642Z,74.18
2022-08-22T19:10:55.106Z,74.70
2022-08-22T19:16:14.440Z,75.29
2022-08-22T19:21:40.819Z,75.56
2022-08-22T19:26:48.152Z,76.00
2022-08-22T19:31:54.533Z,76.05
2022-08-22T19:37:32.255Z,76.20
2022-08-22T19:42:39.999Z,76.43
2022-08-22T19:47:44.478Z,76.65
2022-08-22T19:53:05.478Z,77.35
2022-08-22T19:58:18.803Z,77.58
2022-08-22T20:03:45.719Z,77.71
2022-08-22T20:08:58.798Z,77.87
2022-08-22T20:14:30.096Z,77.88
2022-08-22T20:20:16.442Z,78.26
2022-08-22T20:25:33.386Z,80.01
2022-08-22T20:30:44.240Z,80.49
2022-08-22T20:35:54.418Z,80.27
2022-08-22T20:41:11.740Z,80.35
2022-08-22T20:46:36.386Z,80.88
2022-08-22T20:51:39.214Z,80.93
2022-08-22T20:56:53.623Z,81.92
2022-08-22T21:02:07.756Z,81.96
2022-08-22T21:07:10.658Z,82.55
2022-08-22T21:12:13.901Z,82.50
2022-08-22T21:17:27.102Z,83.12
2022-08-22T21:22:33.554Z,83.16
2022-08-22T21:27:36.610Z,83.64
2022-08-22T21:32:44.287Z,84.66
2022-08-22T21:37:47.982Z,84.39
2022-08-22T21:43:02.522Z,84.77
2022-08-22T21:48:34.257Z,85.57
2022-08-22T21:53:37.076Z,85.35
2022-08-22T21:58:43.385Z,85.02
2022-08-22T22:03:47.542Z,85.27
2022-08-22T22:08:50.696Z,85.22
2022-08-22T22:13:53.515Z,85.28
2022-08-22T22:18:57.915Z,85.76
2022-08-22T22:24:00.710Z,85.31
2022-08-22T22:29:04.570Z,85.77
2022-08-22T22:34:08.700Z,85.34
2022-08-22T22:39:11.833Z,85.09
2022-08-22T22:44:14.633Z,85.36
2022-08-22T22:49:19.327Z,85.61
2022-08-22T22:54:27.336Z,86.18
2022-08-22T22:59:30.319Z,86.43
2022-08-22T23:04:39.352Z,86.59
2022-08-22T23:09:44.966Z,86.90
2022-08-22T23:14:48.121Z,87.58
2022-08-22T23:19:53.064Z,88.04
2022-08-22T23:24:55.892Z,87.83
2022-08-22T23:29:58.701Z,87.87
2022-08-22T23:35:02.920Z,87.93
2022-08-22T23:40:09.318Z,88.48
2022-08-22T23:45:12.261Z,89.51
2022-08-22T23:50:16.438Z,90.18
2022-08-22T23:55:19.363Z,90.79
